sensor_id;sensor_type;location;lat;lon;timestamp;temperature;humidity
32334;DHT22;18810;53.040;8.850;2023-07-16T00:01:59;19.00;99.90
32334;DHT22;18810;53.040;8.850;2023-07-16T00:04:25;18.90;99.90
32334;DHT22;18810;53.040;8.850;2023-07-16T00:06:51;18.90;99.90
32334;DHT22;18810;53.040;8.850;2023-07-16T00:09:16;19.00;99.90
32334;DHT22;18810;53.040;8.850;2023-07-16T00:11:42;18.90;99.90
32334;DHT22;18810;53.040;8.850;2023-07-16T00:14:10;19.00;99.90
32334;DHT22;18810;53.040;8.850;2023-07-16T00:16:35;19.00;99.90
32334;DHT22;18810;53.040;8.850;2023-07-16T00:19:01;19.00;99.90
32334;DHT22;18810;53.040;8.850;2023-07-16T00:21:27;18.90;99.90
32334;DHT22;18810;53.040;8.850;2023-07-16T00:23:52;19.00;99.90
32334;DHT22;18810;53.040;8.850;2023-07-16T00:26:18;18.90;99.90
32334;DHT22;18810;53.040;8.850;2023-07-16T00:28:43;18.90;99.90
32334;DHT22;18810;53.040;8.850;2023-07-16T00:31:09;18.90;99.90
32334;DHT22;18810;53.040;8.850;2023-07-16T00:33:35;19.00;99.90
32334;DHT22;18810;53.040;8.850;2023-07-16T00:36:01;19.00;99.90
32334;DHT22;18810;53.040;8.850;2023-07-16T00:38:27;18.90;99.90
32334;DHT22;18810;53.040;8.850;2023-07-16T00:40:52;18.80;99.90
32334;DHT22;18810;53.040;8.850;2023-07-16T00:43:18;18.90;99.90
32334;DHT22;18810;53.040;8.850;2023-07-16T00:45:45;18.80;99.90
32334;DHT22;18810;53.040;8.850;2023-07-16T00:48:11;18.90;99.90
32334;DHT22;18810;53.040;8.850;2023-07-16T00:50:38;18.90;99.90
32334;DHT22;18810;53.040;8.850;2023-07-16T00:53:06;18.90;99.90
32334;DHT22;18810;53.040;8.850;2023-07-16T00:55:33;18.90;99.90
32334;DHT22;18810;53.040;8.850;2023-07-16T00:58:01;18.80;99.90
32334;DHT22;18810;53.040;8.850;2023-07-16T01:00:35;18.70;99.90
32334;DHT22;18810;53.040;8.850;2023-07-16T01:03:05;18.80;99.90
32334;DHT22;18810;53.040;8.850;2023-07-16T01:08:17;18.70;99.90
32334;DHT22;18810;53.040;8.850;2023-07-16T01:10:45;18.70;99.90
32334;DHT22;18810;53.040;8.850;2023-07-16T01:13:10;18.60;99.90
32334;DHT22;18810;53.040;8.850;2023-07-16T01:15:36;18.50;99.90
32334;DHT22;18810;53.040;8.850;2023-07-16T01:18:04;18.50;99.90
32334;DHT22;18810;53.040;8.850;2023-07-16T01:20:30;18.40;99.90
32334;DHT22;18810;53.040;8.850;2023-07-16T01:23:55;18.40;99.90
32334;DHT22;18810;53.040;8.850;2023-07-16T01:26:36;18.30;99.90
32334;DHT22;18810;53.040;8.850;2023-07-16T01:32:04;18.20;99.90
32334;DHT22;18810;53.040;8.850;2023-07-16T01:34:32;18.10;99.90
32334;DHT22;18810;53.040;8.850;2023-07-16T01:37:00;18.10;99.90
32334;DHT22;18810;53.040;8.850;2023-07-16T01:39:26;18.20;99.90
32334;DHT22;18810;53.040;8.850;2023-07-16T01:41:52;18.10;99.90
32334;DHT22;18810;53.040;8.850;2023-07-16T01:44:18;18.10;99.90
32334;DHT22;18810;53.040;8.850;2023-07-16T01:46:43;18.00;99.90
32334;DHT22;18810;53.040;8.850;2023-07-16T01:49:09;18.00;99.90
32334;DHT22;18810;53.040;8.850;2023-07-16T01:51:34;17.90;99.90
32334;DHT22;18810;53.040;8.850;2023-07-16T01:54:00;18.00;99.90
32334;DHT22;18810;53.040;8.850;2023-07-16T01:56:26;18.00;99.90
32334;DHT22;18810;53.040;8.850;2023-07-16T01:58:51;18.10;99.90
32334;DHT22;18810;53.040;8.850;2023-07-16T02:01:17;18.10;99.90
32334;DHT22;18810;53.040;8.850;2023-07-16T02:03:43;18.10;99.90
32334;DHT22;18810;53.040;8.850;2023-07-16T02:06:08;18.10;99.90
32334;DHT22;18810;53.040;8.850;2023-07-16T02:08:34;18.10;99.90
32334;DHT22;18810;53.040;8.850;2023-07-16T02:10:59;18.10;99.90
32334;DHT22;18810;53.040;8.850;2023-07-16T02:13:27;18.10;99.90
32334;DHT22;18810;53.040;8.850;2023-07-16T02:15:52;18.00;99.90
32334;DHT22;18810;53.040;8.850;2023-07-16T02:18:18;18.00;99.90
32334;DHT22;18810;53.040;8.850;2023-07-16T02:20:46;18.00;99.90
32334;DHT22;18810;53.040;8.850;2023-07-16T02:23:13;18.00;99.90
32334;DHT22;18810;53.040;8.850;2023-07-16T02:25:39;17.90;99.90
32334;DHT22;18810;53.040;8.850;2023-07-16T02:28:04;18.00;99.90
32334;DHT22;18810;53.040;8.850;2023-07-16T02:30:30;18.00;99.90
32334;DHT22;18810;53.040;8.850;2023-07-16T02:32:56;18.00;99.90
32334;DHT22;18810;53.040;8.850;2023-07-16T02:35:21;18.00;99.90
32334;DHT22;18810;53.040;8.850;2023-07-16T02:37:47;18.00;99.90
32334;DHT22;18810;53.040;8.850;2023-07-16T02:40:12;18.00;99.90
32334;DHT22;18810;53.040;8.850;2023-07-16T02:42:38;17.90;99.90
32334;DHT22;18810;53.040;8.850;2023-07-16T02:45:04;18.00;99.90
32334;DHT22;18810;53.040;8.850;2023-07-16T02:47:30;17.90;99.90
32334;DHT22;18810;53.040;8.850;2023-07-16T02:49:55;17.60;99.90
32334;DHT22;18810;53.040;8.850;2023-07-16T02:52:21;17.80;99.90
32334;DHT22;18810;53.040;8.850;2023-07-16T02:54:47;17.70;99.90
32334;DHT22;18810;53.040;8.850;2023-07-16T02:57:12;17.80;99.90
32334;DHT22;18810;53.040;8.850;2023-07-16T02:59:38;17.80;99.90
32334;DHT22;18810;53.040;8.850;2023-07-16T03:02:03;17.70;99.90
32334;DHT22;18810;53.040;8.850;2023-07-16T03:04:29;17.70;99.90
32334;DHT22;18810;53.040;8.850;2023-07-16T03:06:54;17.80;99.90
32334;DHT22;18810;53.040;8.850;2023-07-16T03:09:20;17.80;99.90
32334;DHT22;18810;53.040;8.850;2023-07-16T03:11:46;17.90;99.90
32334;DHT22;18810;53.040;8.850;2023-07-16T03:14:11;17.70;99.90
32334;DHT22;18810;53.040;8.850;2023-07-16T03:16:37;17.70;99.90
32334;DHT22;18810;53.040;8.850;2023-07-16T03:19:02;17.80;99.90
32334;DHT22;18810;53.040;8.850;2023-07-16T03:21:28;17.90;99.90
32334;DHT22;18810;53.040;8.850;2023-07-16T03:23:54;17.90;99.90
32334;DHT22;18810;53.040;8.850;2023-07-16T03:26:19;17.80;99.90
32334;DHT22;18810;53.040;8.850;2023-07-16T03:28:45;17.90;99.90
32334;DHT22;18810;53.040;8.850;2023-07-16T03:31:10;17.80;99.90
32334;DHT22;18810;53.040;8.850;2023-07-16T03:33:36;17.80;99.90
32334;DHT22;18810;53.040;8.850;2023-07-16T03:36:01;17.80;99.90
32334;DHT22;18810;53.040;8.850;2023-07-16T03:38:27;17.80;99.90
32334;DHT22;18810;53.040;8.850;2023-07-16T03:40:53;17.80;99.90
32334;DHT22;18810;53.040;8.850;2023-07-16T03:43:18;17.80;99.90
32334;DHT22;18810;53.040;8.850;2023-07-16T03:45:44;17.80;99.90
32334;DHT22;18810;53.040;8.850;2023-07-16T03:48:10;17.80;99.90
32334;DHT22;18810;53.040;8.850;2023-07-16T03:50:36;17.80;99.90
32334;DHT22;18810;53.040;8.850;2023-07-16T03:53:02;17.90;99.90
32334;DHT22;18810;53.040;8.850;2023-07-16T03:55:29;17.80;99.90
32334;DHT22;18810;53.040;8.850;2023-07-16T03:57:54;17.80;99.90
32334;DHT22;18810;53.040;8.850;2023-07-16T04:00:20;17.80;99.90
32334;DHT22;18810;53.040;8.850;2023-07-16T04:02:46;17.90;99.90
32334;DHT22;18810;53.040;8.850;2023-07-16T04:05:11;17.90;99.90
32334;DHT22;18810;53.040;8.850;2023-07-16T04:07:37;17.80;99.90
32334;DHT22;18810;53.040;8.850;2023-07-16T04:10:03;17.90;99.90
32334;DHT22;18810;53.040;8.850;2023-07-16T04:12:29;17.80;99.90
32334;DHT22;18810;53.040;8.850;2023-07-16T04:14:57;17.90;99.90
32334;DHT22;18810;53.040;8.850;2023-07-16T04:17:23;17.70;99.90
32334;DHT22;18810;53.040;8.850;2023-07-16T04:19:48;17.80;99.90
32334;DHT22;18810;53.040;8.850;2023-07-16T04:22:14;17.70;99.90
32334;DHT22;18810;53.040;8.850;2023-07-16T04:24:40;17.70;99.90
32334;DHT22;18810;53.040;8.850;2023-07-16T04:27:05;17.70;99.90
32334;DHT22;18810;53.040;8.850;2023-07-16T04:29:31;17.70;99.90
32334;DHT22;18810;53.040;8.850;2023-07-16T04:31:56;17.70;99.90
32334;DHT22;18810;53.040;8.850;2023-07-16T04:34:22;17.70;99.90
32334;DHT22;18810;53.040;8.850;2023-07-16T04:36:48;17.70;99.90
32334;DHT22;18810;53.040;8.850;2023-07-16T04:39:13;17.70;99.90
32334;DHT22;18810;53.040;8.850;2023-07-16T04:41:39;17.70;99.90
32334;DHT22;18810;53.040;8.850;2023-07-16T04:44:05;17.60;99.90
32334;DHT22;18810;53.040;8.850;2023-07-16T04:46:31;17.70;99.90
32334;DHT22;18810;53.040;8.850;2023-07-16T04:48:56;17.60;99.90
32334;DHT22;18810;53.040;8.850;2023-07-16T04:51:22;17.80;99.90
32334;DHT22;18810;53.040;8.850;2023-07-16T04:53:48;17.70;99.90
32334;DHT22;18810;53.040;8.850;2023-07-16T04:56:15;17.70;99.90
32334;DHT22;18810;53.040;8.850;2023-07-16T04:58:41;17.80;99.90
32334;DHT22;18810;53.040;8.850;2023-07-16T05:01:08;17.70;99.90
32334;DHT22;18810;53.040;8.850;2023-07-16T05:03:34;17.80;99.90
32334;DHT22;18810;53.040;8.850;2023-07-16T05:06:00;17.80;99.90
32334;DHT22;18810;53.040;8.850;2023-07-16T05:08:26;17.80;99.90
32334;DHT22;18810;53.040;8.850;2023-07-16T05:10:51;17.80;99.90
32334;DHT22;18810;53.040;8.850;2023-07-16T05:13:17;17.80;99.90
32334;DHT22;18810;53.040;8.850;2023-07-16T05:15:46;17.90;99.90
32334;DHT22;18810;53.040;8.850;2023-07-16T05:18:11;17.80;99.90
32334;DHT22;18810;53.040;8.850;2023-07-16T05:20:37;17.80;99.90
32334;DHT22;18810;53.040;8.850;2023-07-16T05:23:03;17.80;99.90
32334;DHT22;18810;53.040;8.850;2023-07-16T05:25:28;17.90;99.90
32334;DHT22;18810;53.040;8.850;2023-07-16T05:27:55;17.90;99.90
32334;DHT22;18810;53.040;8.850;2023-07-16T05:30:20;18.00;99.90
32334;DHT22;18810;53.040;8.850;2023-07-16T05:32:46;18.00;99.90
32334;DHT22;18810;53.040;8.850;2023-07-16T05:35:12;18.00;99.90
32334;DHT22;18810;53.040;8.850;2023-07-16T05:37:37;18.00;99.90
32334;DHT22;18810;53.040;8.850;2023-07-16T05:40:03;17.90;99.90
32334;DHT22;18810;53.040;8.850;2023-07-16T05:42:29;18.00;99.90
32334;DHT22;18810;53.040;8.850;2023-07-16T05:44:55;18.10;99.90
32334;DHT22;18810;53.040;8.850;2023-07-16T05:47:21;18.10;99.90
32334;DHT22;18810;53.040;8.850;2023-07-16T05:49:46;18.20;99.90
32334;DHT22;18810;53.040;8.850;2023-07-16T05:52:12;18.20;99.90
32334;DHT22;18810;53.040;8.850;2023-07-16T05:54:38;18.20;99.90
32334;DHT22;18810;53.040;8.850;2023-07-16T05:57:04;18.20;99.90
32334;DHT22;18810;53.040;8.850;2023-07-16T05:59:30;18.30;99.90
32334;DHT22;18810;53.040;8.850;2023-07-16T06:01:59;18.30;99.90
32334;DHT22;18810;53.040;8.850;2023-07-16T06:04:25;18.40;99.90
32334;DHT22;18810;53.040;8.850;2023-07-16T06:06:51;18.50;99.90
32334;DHT22;18810;53.040;8.850;2023-07-16T06:09:16;18.60;99.90
32334;DHT22;18810;53.040;8.850;2023-07-16T06:11:42;18.70;99.90
32334;DHT22;18810;53.040;8.850;2023-07-16T06:14:08;18.80;99.90
32334;DHT22;18810;53.040;8.850;2023-07-16T06:16:34;18.90;99.90
32334;DHT22;18810;53.040;8.850;2023-07-16T06:18:59;18.90;99.90
32334;DHT22;18810;53.040;8.850;2023-07-16T06:21:25;18.90;99.90
32334;DHT22;18810;53.040;8.850;2023-07-16T06:23:50;19.10;99.90
32334;DHT22;18810;53.040;8.850;2023-07-16T06:26:16;19.30;99.90
32334;DHT22;18810;53.040;8.850;2023-07-16T06:28:42;19.70;99.90
32334;DHT22;18810;53.040;8.850;2023-07-16T06:31:07;20.00;99.90
32334;DHT22;18810;53.040;8.850;2023-07-16T06:33:33;20.30;99.90
32334;DHT22;18810;53.040;8.850;2023-07-16T06:35:59;20.90;99.90
32334;DHT22;18810;53.040;8.850;2023-07-16T06:38:24;21.60;99.90
32334;DHT22;18810;53.040;8.850;2023-07-16T06:40:51;22.30;99.90
32334;DHT22;18810;53.040;8.850;2023-07-16T06:43:17;23.80;99.90
32334;DHT22;18810;53.040;8.850;2023-07-16T06:45:43;25.00;99.90
32334;DHT22;18810;53.040;8.850;2023-07-16T06:48:09;25.30;99.90
32334;DHT22;18810;53.040;8.850;2023-07-16T06:50:35;25.70;99.90
32334;DHT22;18810;53.040;8.850;2023-07-16T06:53:00;26.80;99.90
32334;DHT22;18810;53.040;8.850;2023-07-16T06:55:26;26.70;99.90
32334;DHT22;18810;53.040;8.850;2023-07-16T06:57:52;25.90;99.90
32334;DHT22;18810;53.040;8.850;2023-07-16T07:00:18;23.40;99.90
32334;DHT22;18810;53.040;8.850;2023-07-16T07:02:43;23.40;99.90
32334;DHT22;18810;53.040;8.850;2023-07-16T07:05:09;22.50;99.90
32334;DHT22;18810;53.040;8.850;2023-07-16T07:07:35;22.00;99.90
32334;DHT22;18810;53.040;8.850;2023-07-16T07:10:01;21.90;99.90
32334;DHT22;18810;53.040;8.850;2023-07-16T07:12:27;21.90;99.90
32334;DHT22;18810;53.040;8.850;2023-07-16T07:14:53;21.50;99.90
32334;DHT22;18810;53.040;8.850;2023-07-16T07:17:18;21.60;99.90
32334;DHT22;18810;53.040;8.850;2023-07-16T07:19:44;21.70;99.90
32334;DHT22;18810;53.040;8.850;2023-07-16T07:22:10;21.60;99.90
32334;DHT22;18810;53.040;8.850;2023-07-16T07:24:36;21.80;99.90
32334;DHT22;18810;53.040;8.850;2023-07-16T07:27:02;21.70;99.90
32334;DHT22;18810;53.040;8.850;2023-07-16T07:29:28;21.50;99.90
32334;DHT22;18810;53.040;8.850;2023-07-16T07:31:54;21.50;99.90
32334;DHT22;18810;53.040;8.850;2023-07-16T07:34:19;21.40;99.90
32334;DHT22;18810;53.040;8.850;2023-07-16T07:36:45;21.30;99.90
32334;DHT22;18810;53.040;8.850;2023-07-16T07:39:11;21.30;99.90
32334;DHT22;18810;53.040;8.850;2023-07-16T07:41:38;21.30;99.90
32334;DHT22;18810;53.040;8.850;2023-07-16T07:44:04;21.60;99.90
32334;DHT22;18810;53.040;8.850;2023-07-16T07:46:30;22.10;99.90
32334;DHT22;18810;53.040;8.850;2023-07-16T07:48:55;22.00;99.90
32334;DHT22;18810;53.040;8.850;2023-07-16T07:51:21;22.40;99.90
32334;DHT22;18810;53.040;8.850;2023-07-16T07:53:47;22.80;99.90
32334;DHT22;18810;53.040;8.850;2023-07-16T07:56:12;23.10;99.90
32334;DHT22;18810;53.040;8.850;2023-07-16T07:58:38;23.40;99.90
32334;DHT22;18810;53.040;8.850;2023-07-16T08:01:08;23.70;99.90
32334;DHT22;18810;53.040;8.850;2023-07-16T08:03:34;24.50;99.90
32334;DHT22;18810;53.040;8.850;2023-07-16T08:06:00;23.90;99.90
32334;DHT22;18810;53.040;8.850;2023-07-16T08:08:26;24.20;99.90
32334;DHT22;18810;53.040;8.850;2023-07-16T08:10:53;24.60;99.90
32334;DHT22;18810;53.040;8.850;2023-07-16T08:13:18;25.00;99.90
32334;DHT22;18810;53.040;8.850;2023-07-16T08:15:44;25.00;99.90
32334;DHT22;18810;53.040;8.850;2023-07-16T08:18:10;24.30;99.90
32334;DHT22;18810;53.040;8.850;2023-07-16T08:20:36;24.00;99.90
32334;DHT22;18810;53.040;8.850;2023-07-16T08:23:02;23.70;99.90
32334;DHT22;18810;53.040;8.850;2023-07-16T08:25:28;22.90;99.90
32334;DHT22;18810;53.040;8.850;2023-07-16T08:27:54;22.50;99.90
32334;DHT22;18810;53.040;8.850;2023-07-16T08:30:19;22.20;99.90
32334;DHT22;18810;53.040;8.850;2023-07-16T08:32:45;22.10;99.90
32334;DHT22;18810;53.040;8.850;2023-07-16T08:35:11;22.40;99.90
32334;DHT22;18810;53.040;8.850;2023-07-16T08:37:42;23.10;99.90
32334;DHT22;18810;53.040;8.850;2023-07-16T08:40:26;23.30;99.90
32334;DHT22;18810;53.040;8.850;2023-07-16T08:42:53;23.40;99.90
32334;DHT22;18810;53.040;8.850;2023-07-16T08:45:21;23.60;99.90
32334;DHT22;18810;53.040;8.850;2023-07-16T08:47:49;23.60;99.90
32334;DHT22;18810;53.040;8.850;2023-07-16T08:50:14;24.00;99.90
32334;DHT22;18810;53.040;8.850;2023-07-16T08:52:40;23.60;99.90
32334;DHT22;18810;53.040;8.850;2023-07-16T08:55:06;23.50;99.90
32334;DHT22;18810;53.040;8.850;2023-07-16T08:57:32;23.30;99.90
32334;DHT22;18810;53.040;8.850;2023-07-16T08:59:58;24.40;99.90
32334;DHT22;18810;53.040;8.850;2023-07-16T09:02:23;24.10;99.90
32334;DHT22;18810;53.040;8.850;2023-07-16T09:04:50;24.00;99.90
32334;DHT22;18810;53.040;8.850;2023-07-16T09:07:18;23.90;99.90
32334;DHT22;18810;53.040;8.850;2023-07-16T09:09:55;23.80;99.90
32334;DHT22;18810;53.040;8.850;2023-07-16T09:12:24;24.00;99.60
32334;DHT22;18810;53.040;8.850;2023-07-16T09:14:50;24.00;99.90
32334;DHT22;18810;53.040;8.850;2023-07-16T09:17:24;24.10;99.70
32334;DHT22;18810;53.040;8.850;2023-07-16T09:19:51;24.40;99.00
32334;DHT22;18810;53.040;8.850;2023-07-16T09:22:18;24.70;98.50
32334;DHT22;18810;53.040;8.850;2023-07-16T09:24:48;24.50;98.60
32334;DHT22;18810;53.040;8.850;2023-07-16T09:27:14;24.00;99.20
32334;DHT22;18810;53.040;8.850;2023-07-16T09:29:40;24.00;98.80
32334;DHT22;18810;53.040;8.850;2023-07-16T09:32:06;24.80;98.50
32334;DHT22;18810;53.040;8.850;2023-07-16T09:34:32;25.50;97.50
32334;DHT22;18810;53.040;8.850;2023-07-16T09:36:58;25.40;96.90
32334;DHT22;18810;53.040;8.850;2023-07-16T09:39:25;25.80;96.10
32334;DHT22;18810;53.040;8.850;2023-07-16T09:41:51;25.30;96.10
32334;DHT22;18810;53.040;8.850;2023-07-16T09:44:17;25.10;97.20
32334;DHT22;18810;53.040;8.850;2023-07-16T09:46:44;25.30;96.50
32334;DHT22;18810;53.040;8.850;2023-07-16T09:49:10;25.40;95.80
32334;DHT22;18810;53.040;8.850;2023-07-16T09:51:37;24.40;96.70
32334;DHT22;18810;53.040;8.850;2023-07-16T09:54:04;23.80;97.70
32334;DHT22;18810;53.040;8.850;2023-07-16T09:56:44;24.20;97.40
32334;DHT22;18810;53.040;8.850;2023-07-16T09:59:16;24.50;96.60
32334;DHT22;18810;53.040;8.850;2023-07-16T10:01:42;25.50;96.20
32334;DHT22;18810;53.040;8.850;2023-07-16T10:04:17;26.40;95.10
32334;DHT22;18810;53.040;8.850;2023-07-16T10:06:55;26.80;94.50
32334;DHT22;18810;53.040;8.850;2023-07-16T10:09:41;26.40;94.60
32334;DHT22;18810;53.040;8.850;2023-07-16T10:14:40;25.40;95.50
32334;DHT22;18810;53.040;8.850;2023-07-16T10:17:07;24.90;95.60
32334;DHT22;18810;53.040;8.850;2023-07-16T10:19:49;24.70;96.50
32334;DHT22;18810;53.040;8.850;2023-07-16T10:22:15;24.20;96.30
32334;DHT22;18810;53.040;8.850;2023-07-16T10:24:40;24.00;96.50
32334;DHT22;18810;53.040;8.850;2023-07-16T10:27:06;23.80;97.00
32334;DHT22;18810;53.040;8.850;2023-07-16T10:29:32;24.40;96.10
32334;DHT22;18810;53.040;8.850;2023-07-16T10:31:58;24.30;96.30
32334;DHT22;18810;53.040;8.850;2023-07-16T10:34:24;23.80;97.00
32334;DHT22;18810;53.040;8.850;2023-07-16T10:36:51;23.40;97.70
32334;DHT22;18810;53.040;8.850;2023-07-16T10:39:17;23.50;97.50
32334;DHT22;18810;53.040;8.850;2023-07-16T10:41:43;24.50;97.30
32334;DHT22;18810;53.040;8.850;2023-07-16T10:44:09;25.20;96.00
32334;DHT22;18810;53.040;8.850;2023-07-16T10:46:36;25.60;95.70
32334;DHT22;18810;53.040;8.850;2023-07-16T10:49:02;25.60;94.90
32334;DHT22;18810;53.040;8.850;2023-07-16T10:51:28;25.40;95.00
32334;DHT22;18810;53.040;8.850;2023-07-16T10:53:57;25.40;95.00
32334;DHT22;18810;53.040;8.850;2023-07-16T10:56:23;26.30;94.00
32334;DHT22;18810;53.040;8.850;2023-07-16T10:58:49;26.20;93.80
32334;DHT22;18810;53.040;8.850;2023-07-16T11:01:15;25.40;94.70
32334;DHT22;18810;53.040;8.850;2023-07-16T11:03:40;25.00;95.20
32334;DHT22;18810;53.040;8.850;2023-07-16T11:06:09;25.60;95.30
32334;DHT22;18810;53.040;8.850;2023-07-16T11:08:37;25.80;94.70
32334;DHT22;18810;53.040;8.850;2023-07-16T11:11:03;25.70;94.60
32334;DHT22;18810;53.040;8.850;2023-07-16T11:13:31;25.60;94.80
32334;DHT22;18810;53.040;8.850;2023-07-16T11:15:57;25.30;94.70
32334;DHT22;18810;53.040;8.850;2023-07-16T11:18:31;24.70;95.20
32334;DHT22;18810;53.040;8.850;2023-07-16T11:20:58;24.40;95.80
32334;DHT22;18810;53.040;8.850;2023-07-16T11:23:24;24.40;95.50
32334;DHT22;18810;53.040;8.850;2023-07-16T11:25:52;24.40;95.60
32334;DHT22;18810;53.040;8.850;2023-07-16T11:28:17;24.70;95.80
32334;DHT22;18810;53.040;8.850;2023-07-16T11:30:43;25.10;94.90
32334;DHT22;18810;53.040;8.850;2023-07-16T11:33:12;25.20;94.70
32334;DHT22;18810;53.040;8.850;2023-07-16T11:35:38;25.30;94.60
32334;DHT22;18810;53.040;8.850;2023-07-16T11:38:05;25.00;94.40
32334;DHT22;18810;53.040;8.850;2023-07-16T11:40:34;24.80;95.40
32334;DHT22;18810;53.040;8.850;2023-07-16T11:43:13;24.90;95.00
32334;DHT22;18810;53.040;8.850;2023-07-16T11:45:39;24.80;95.20
32334;DHT22;18810;53.040;8.850;2023-07-16T11:48:05;24.90;95.80
32334;DHT22;18810;53.040;8.850;2023-07-16T11:50:31;24.70;95.10
32334;DHT22;18810;53.040;8.850;2023-07-16T11:53:00;24.50;95.80
32334;DHT22;18810;53.040;8.850;2023-07-16T11:55:26;24.70;95.50
32334;DHT22;18810;53.040;8.850;2023-07-16T11:57:52;25.20;95.40
32334;DHT22;18810;53.040;8.850;2023-07-16T12:00:18;25.50;94.80
32334;DHT22;18810;53.040;8.850;2023-07-16T12:02:44;25.60;94.90
32334;DHT22;18810;53.040;8.850;2023-07-16T12:05:17;25.50;94.70
32334;DHT22;18810;53.040;8.850;2023-07-16T12:07:43;25.00;94.50
32334;DHT22;18810;53.040;8.850;2023-07-16T12:10:08;24.90;94.80
32334;DHT22;18810;53.040;8.850;2023-07-16T12:12:34;25.10;94.60
32334;DHT22;18810;53.040;8.850;2023-07-16T12:15:04;25.10;95.00
32334;DHT22;18810;53.040;8.850;2023-07-16T12:17:30;25.20;94.90
32334;DHT22;18810;53.040;8.850;2023-07-16T12:19:55;25.50;94.50
32334;DHT22;18810;53.040;8.850;2023-07-16T12:22:21;25.20;95.70
32334;DHT22;18810;53.040;8.850;2023-07-16T12:24:47;25.20;95.90
32334;DHT22;18810;53.040;8.850;2023-07-16T12:27:15;25.50;95.60
32334;DHT22;18810;53.040;8.850;2023-07-16T12:29:43;25.10;94.70
32334;DHT22;18810;53.040;8.850;2023-07-16T12:32:10;25.00;95.30
32334;DHT22;18810;53.040;8.850;2023-07-16T12:34:35;25.80;95.30
32334;DHT22;18810;53.040;8.850;2023-07-16T12:37:02;26.00;94.10
32334;DHT22;18810;53.040;8.850;2023-07-16T12:39:28;26.40;94.10
32334;DHT22;18810;53.040;8.850;2023-07-16T12:41:54;26.80;93.60
32334;DHT22;18810;53.040;8.850;2023-07-16T12:44:19;26.50;93.40
32334;DHT22;18810;53.040;8.850;2023-07-16T12:46:45;26.10;94.10
32334;DHT22;18810;53.040;8.850;2023-07-16T12:49:11;25.80;94.50
32334;DHT22;18810;53.040;8.850;2023-07-16T12:51:36;25.80;94.30
32334;DHT22;18810;53.040;8.850;2023-07-16T12:54:02;25.90;94.30
32334;DHT22;18810;53.040;8.850;2023-07-16T12:56:28;25.90;93.80
32334;DHT22;18810;53.040;8.850;2023-07-16T12:58:53;25.90;94.60
32334;DHT22;18810;53.040;8.850;2023-07-16T13:01:19;26.20;93.70
32334;DHT22;18810;53.040;8.850;2023-07-16T13:03:44;26.30;93.30
32334;DHT22;18810;53.040;8.850;2023-07-16T13:06:10;25.90;94.00
32334;DHT22;18810;53.040;8.850;2023-07-16T13:08:36;25.80;94.60
32334;DHT22;18810;53.040;8.850;2023-07-16T13:11:02;25.60;94.60
32334;DHT22;18810;53.040;8.850;2023-07-16T13:13:27;25.10;94.50
32334;DHT22;18810;53.040;8.850;2023-07-16T13:15:53;24.90;95.30
32334;DHT22;18810;53.040;8.850;2023-07-16T13:18:19;24.50;95.00
32334;DHT22;18810;53.040;8.850;2023-07-16T13:20:45;24.50;96.00
32334;DHT22;18810;53.040;8.850;2023-07-16T13:23:10;24.50;95.40
32334;DHT22;18810;53.040;8.850;2023-07-16T13:25:36;24.70;95.60
32334;DHT22;18810;53.040;8.850;2023-07-16T13:28:07;25.00;95.20
32334;DHT22;18810;53.040;8.850;2023-07-16T13:30:33;25.40;94.60
32334;DHT22;18810;53.040;8.850;2023-07-16T13:32:59;25.80;94.40
32334;DHT22;18810;53.040;8.850;2023-07-16T13:35:26;26.20;93.70
32334;DHT22;18810;53.040;8.850;2023-07-16T13:37:52;26.10;93.60
32334;DHT22;18810;53.040;8.850;2023-07-16T13:40:17;26.10;93.30
32334;DHT22;18810;53.040;8.850;2023-07-16T13:42:46;26.00;93.20
32334;DHT22;18810;53.040;8.850;2023-07-16T13:45:12;25.80;93.50
32334;DHT22;18810;53.040;8.850;2023-07-16T13:47:38;25.50;93.90
32334;DHT22;18810;53.040;8.850;2023-07-16T13:50:03;25.60;93.80
32334;DHT22;18810;53.040;8.850;2023-07-16T13:52:29;25.40;94.00
32334;DHT22;18810;53.040;8.850;2023-07-16T13:54:55;25.10;94.30
32334;DHT22;18810;53.040;8.850;2023-07-16T13:57:21;25.20;94.60
32334;DHT22;18810;53.040;8.850;2023-07-16T13:59:47;25.30;94.70
32334;DHT22;18810;53.040;8.850;2023-07-16T14:02:12;25.50;93.80
32334;DHT22;18810;53.040;8.850;2023-07-16T14:04:38;25.40;93.80
32334;DHT22;18810;53.040;8.850;2023-07-16T14:07:04;25.50;93.60
32334;DHT22;18810;53.040;8.850;2023-07-16T14:09:30;25.40;93.70
32334;DHT22;18810;53.040;8.850;2023-07-16T14:11:55;25.30;93.70
32334;DHT22;18810;53.040;8.850;2023-07-16T14:14:22;25.00;94.00
32334;DHT22;18810;53.040;8.850;2023-07-16T14:16:48;24.90;95.00
32334;DHT22;18810;53.040;8.850;2023-07-16T14:19:13;25.00;94.60
32334;DHT22;18810;53.040;8.850;2023-07-16T14:21:40;25.30;94.30
32334;DHT22;18810;53.040;8.850;2023-07-16T14:24:06;25.60;94.30
32334;DHT22;18810;53.040;8.850;2023-07-16T14:26:31;25.90;93.80
32334;DHT22;18810;53.040;8.850;2023-07-16T14:28:57;26.10;93.50
32334;DHT22;18810;53.040;8.850;2023-07-16T14:31:23;26.20;93.70
32334;DHT22;18810;53.040;8.850;2023-07-16T14:33:48;26.10;92.90
32334;DHT22;18810;53.040;8.850;2023-07-16T14:36:14;25.90;93.00
32334;DHT22;18810;53.040;8.850;2023-07-16T14:38:40;25.40;93.30
32334;DHT22;18810;53.040;8.850;2023-07-16T14:41:05;25.40;93.90
32334;DHT22;18810;53.040;8.850;2023-07-16T14:43:33;25.40;94.00
32334;DHT22;18810;53.040;8.850;2023-07-16T14:45:58;25.00;94.10
32334;DHT22;18810;53.040;8.850;2023-07-16T14:48:24;25.20;94.40
32334;DHT22;18810;53.040;8.850;2023-07-16T14:50:52;25.00;93.80
32334;DHT22;18810;53.040;8.850;2023-07-16T14:53:17;25.00;94.40
32334;DHT22;18810;53.040;8.850;2023-07-16T14:55:51;25.00;94.50
32334;DHT22;18810;53.040;8.850;2023-07-16T14:58:20;25.00;94.30
32334;DHT22;18810;53.040;8.850;2023-07-16T15:00:48;25.00;94.30
32334;DHT22;18810;53.040;8.850;2023-07-16T15:03:14;24.80;94.70
32334;DHT22;18810;53.040;8.850;2023-07-16T15:05:40;24.90;94.40
32334;DHT22;18810;53.040;8.850;2023-07-16T15:08:06;25.00;94.60
32334;DHT22;18810;53.040;8.850;2023-07-16T15:10:32;25.10;94.30
32334;DHT22;18810;53.040;8.850;2023-07-16T15:12:58;25.50;94.10
32334;DHT22;18810;53.040;8.850;2023-07-16T15:15:24;25.40;94.20
32334;DHT22;18810;53.040;8.850;2023-07-16T15:17:49;25.30;94.00
32334;DHT22;18810;53.040;8.850;2023-07-16T15:20:15;25.00;93.80
32334;DHT22;18810;53.040;8.850;2023-07-16T15:22:40;25.10;94.20
32334;DHT22;18810;53.040;8.850;2023-07-16T15:25:07;25.20;94.00
32334;DHT22;18810;53.040;8.850;2023-07-16T15:27:33;25.30;94.50
32334;DHT22;18810;53.040;8.850;2023-07-16T15:29:58;25.30;93.60
32334;DHT22;18810;53.040;8.850;2023-07-16T15:32:24;25.00;94.20
32334;DHT22;18810;53.040;8.850;2023-07-16T15:34:50;25.00;94.30